createdAt,value
2017-11-16T00:00:17.168Z,5.90
2017-11-16T00:02:48.209Z,5.90
2017-11-16T00:05:19.868Z,5.80
2017-11-16T00:07:52.152Z,5.90
2017-11-16T00:10:23.068Z,6.00
2017-11-16T00:12:54.727Z,5.90
2017-11-16T00:15:27.307Z,6.00
2017-11-16T00:17:58.028Z,6.00
2017-11-16T00:20:30.939Z,5.90
2017-11-16T00:23:01.868Z,5.90
2017-11-16T00:25:33.208Z,5.90
2017-11-16T00:28:05.890Z,5.80
2017-11-16T00:30:38.868Z,5.70
2017-11-16T00:33:10.328Z,5.80
2017-11-16T00:35:44.529Z,5.80
2017-11-16T00:38:16.608Z,5.80
2017-11-16T00:40:48.476Z,5.90
2017-11-16T00:43:19.627Z,5.80
2017-11-16T00:45:50.248Z,5.90
2017-11-16T00:48:20.768Z,5.90
2017-11-16T00:50:51.708Z,6.00
2017-11-16T00:53:25.767Z,6.00
2017-11-16T00:55:57.889Z,5.90
2017-11-16T00:58:29.448Z,5.90
2017-11-16T01:01:00.368Z,5.90
2017-11-16T01:03:32.028Z,5.80
2017-11-16T01:06:07.868Z,5.80
2017-11-16T01:08:40.248Z,5.80
2017-11-16T01:11:11.748Z,5.80
2017-11-16T01:13:42.788Z,5.80
2017-11-16T01:16:14.387Z,5.90
2017-11-16T01:18:45.137Z,6.00
2017-11-16T01:21:22.767Z,6.00
2017-11-16T01:23:54.368Z,6.00
2017-11-16T01:26:26.228Z,6.00
2017-11-16T01:28:57.467Z,6.00
2017-11-16T01:31:29.128Z,5.90
2017-11-16T01:34:00.167Z,5.90
2017-11-16T01:36:31.928Z,5.90
2017-11-16T01:39:04.770Z,5.80
2017-11-16T01:41:36.277Z,5.80
2017-11-16T01:44:07.907Z,5.80
2017-11-16T01:46:39.468Z,5.80
2017-11-16T01:49:09.988Z,5.90
2017-11-16T01:51:41.028Z,5.80
2017-11-16T01:54:12.908Z,5.70
2017-11-16T01:56:44.770Z,5.80
2017-11-16T01:59:15.769Z,5.80
2017-11-16T02:01:48.169Z,5.70
2017-11-16T02:04:20.448Z,5.70
2017-11-16T02:06:53.948Z,5.70
2017-11-16T02:09:25.491Z,5.70
2017-11-16T02:11:57.328Z,5.80
2017-11-16T02:14:29.628Z,5.80
2017-11-16T02:17:00.547Z,5.80
2017-11-16T02:19:32.728Z,5.80
2017-11-16T02:22:04.488Z,5.80
2017-11-16T02:24:35.628Z,5.90
2017-11-16T02:27:09.328Z,5.80
2017-11-16T02:29:41.407Z,5.80
2017-11-16T02:32:14.888Z,5.70
2017-11-16T02:34:46.788Z,5.70
2017-11-16T02:37:21.468Z,5.70
2017-11-16T02:39:56.088Z,5.70
2017-11-16T02:42:28.787Z,5.70
2017-11-16T02:45:00.790Z,5.70
2017-11-16T02:47:31.862Z,5.70
2017-11-16T02:50:03.426Z,5.70
2017-11-16T02:52:34.870Z,5.80
2017-11-16T02:55:06.527Z,5.80
2017-11-16T02:57:38.388Z,5.80
2017-11-16T03:00:10.148Z,5.70
2017-11-16T03:02:40.887Z,5.70
2017-11-16T03:05:16.328Z,5.70
2017-11-16T03:07:47.048Z,5.70
2017-11-16T03:10:17.487Z,5.70
2017-11-16T03:12:48.728Z,5.80
2017-11-16T03:15:20.688Z,5.80
2017-11-16T03:17:52.828Z,5.80
2017-11-16T03:20:23.788Z,5.70
2017-11-16T03:22:55.648Z,5.60
2017-11-16T03:25:28.747Z,5.70
2017-11-16T03:28:02.748Z,5.70
2017-11-16T03:30:33.790Z,5.70
2017-11-16T03:33:07.708Z,5.80
2017-11-16T03:35:40.387Z,5.80
2017-11-16T03:38:13.068Z,5.90
2017-11-16T03:40:43.693Z,5.80
2017-11-16T03:43:16.467Z,5.90
2017-11-16T03:45:51.088Z,5.90
2017-11-16T03:48:22.447Z,5.90
2017-11-16T03:50:56.148Z,5.90
2017-11-16T03:53:28.607Z,5.80
2017-11-16T03:56:00.368Z,5.80
2017-11-16T03:58:31.228Z,5.70
2017-11-16T04:01:02.049Z,5.60
2017-11-16T04:03:37.068Z,5.70
2017-11-16T04:06:07.908Z,5.70
2017-11-16T04:08:42.788Z,5.70
2017-11-16T04:11:15.948Z,5.50
2017-11-16T04:13:46.828Z,5.50
2017-11-16T04:16:23.333Z,5.50
2017-11-16T04:18:55.508Z,5.50
2017-11-16T04:21:26.828Z,5.60
2017-11-16T04:23:57.168Z,5.60
2017-11-16T04:26:30.777Z,5.60
2017-11-16T04:29:02.627Z,5.60
2017-11-16T04:31:35.428Z,5.60
2017-11-16T04:34:06.049Z,5.70
2017-11-16T04:36:39.788Z,5.70
2017-11-16T04:39:13.988Z,5.60
2017-11-16T04:41:45.208Z,5.60
2017-11-16T04:44:17.202Z,5.60
2017-11-16T04:46:50.467Z,5.60
2017-11-16T04:49:21.408Z,5.60
2017-11-16T04:51:52.248Z,5.60
2017-11-16T04:54:22.809Z,5.60
2017-11-16T04:56:54.628Z,5.60
2017-11-16T04:59:26.888Z,5.60
2017-11-16T05:01:57.628Z,5.70
2017-11-16T05:04:28.049Z,5.70
2017-11-16T05:06:59.088Z,5.50
2017-11-16T05:09:30.747Z,5.40
2017-11-16T05:12:01.830Z,5.30
2017-11-16T05:14:33.647Z,5.20
2017-11-16T05:17:07.249Z,5.20
2017-11-16T05:19:44.108Z,5.20
2017-11-16T05:22:17.628Z,5.10
2017-11-16T05:24:49.988Z,5.00
2017-11-16T05:27:24.308Z,5.00
2017-11-16T05:29:55.810Z,5.00
2017-11-16T05:32:26.589Z,5.10
2017-11-16T05:34:58.770Z,5.10
2017-11-16T05:37:30.729Z,5.10
2017-11-16T05:40:02.589Z,5.10
2017-11-16T05:42:34.454Z,5.20
2017-11-16T05:45:05.852Z,5.20
2017-11-16T05:47:37.449Z,5.20
2017-11-16T05:50:08.172Z,5.20
2017-11-16T05:52:40.792Z,5.20
2017-11-16T05:55:13.531Z,5.20
2017-11-16T05:57:45.093Z,5.30
2017-11-16T06:00:19.092Z,5.30
2017-11-16T06:02:50.432Z,5.30
2017-11-16T06:05:21.796Z,5.20
2017-11-16T06:07:54.797Z,5.10
2017-11-16T06:10:27.058Z,5.20
2017-11-16T06:13:01.580Z,5.10
2017-11-16T06:15:33.438Z,5.00
2017-11-16T06:18:04.058Z,5.00
2017-11-16T06:20:34.838Z,5.10
2017-11-16T06:23:06.039Z,5.10
2017-11-16T06:25:41.179Z,5.10
2017-11-16T06:28:12.218Z,5.10
2017-11-16T06:30:44.179Z,5.00
2017-11-16T06:33:14.918Z,5.10
2017-11-16T06:35:46.541Z,5.10
2017-11-16T06:38:17.713Z,5.20
2017-11-16T06:40:49.673Z,5.30
2017-11-16T06:43:22.153Z,5.40
2017-11-16T06:45:54.113Z,5.50
2017-11-16T06:48:25.157Z,5.50
2017-11-16T06:50:56.073Z,5.60
2017-11-16T06:53:26.835Z,5.60
2017-11-16T06:56:01.454Z,5.60
2017-11-16T06:58:33.613Z,5.60
2017-11-16T07:01:06.174Z,5.70
2017-11-16T07:03:37.314Z,5.70
2017-11-16T07:06:08.255Z,5.60
2017-11-16T07:08:40.216Z,5.60
2017-11-16T07:11:12.596Z,5.60
2017-11-16T07:13:43.815Z,5.60
2017-11-16T07:16:14.816Z,5.50
2017-11-16T07:18:46.935Z,5.50
2017-11-16T07:21:17.776Z,5.60
2017-11-16T07:23:49.336Z,5.60
2017-11-16T07:26:23.756Z,5.60
2017-11-16T07:28:55.716Z,5.60
2017-11-16T07:31:29.714Z,5.70
2017-11-16T07:34:01.281Z,5.70
2017-11-16T07:36:32.517Z,5.70
2017-11-16T07:39:04.383Z,5.60
2017-11-16T07:41:36.535Z,5.60
2017-11-16T07:44:09.536Z,5.60
2017-11-16T07:46:41.076Z,5.60
2017-11-16T07:49:14.375Z,5.70
2017-11-16T07:51:45.715Z,5.70
2017-11-16T07:54:21.816Z,5.80
2017-11-16T07:56:52.935Z,5.80
2017-11-16T07:59:27.436Z,5.90
2017-11-16T08:02:00.818Z,5.90
2017-11-16T08:04:31.998Z,6.00
2017-11-16T08:07:08.036Z,6.00
2017-11-16T08:09:39.295Z,5.90
2017-11-16T08:12:12.083Z,5.90
2017-11-16T08:14:43.016Z,5.90
2017-11-16T08:17:14.062Z,5.90
2017-11-16T08:19:52.823Z,5.90
2017-11-16T08:22:24.544Z,5.90
2017-11-16T08:24:56.599Z,6.10
2017-11-16T08:27:27.813Z,6.00
2017-11-16T08:29:59.997Z,6.20
2017-11-16T08:32:32.456Z,6.20
2017-11-16T08:35:03.216Z,6.20
2017-11-16T08:37:39.815Z,6.30
2017-11-16T08:40:11.939Z,6.30
2017-11-16T08:42:42.551Z,6.30
2017-11-16T08:45:13.829Z,6.10
2017-11-16T08:47:47.214Z,6.00
2017-11-16T08:50:19.276Z,6.10
2017-11-16T08:52:50.538Z,6.00
2017-11-16T08:55:27.497Z,6.00
2017-11-16T08:58:00.485Z,5.90
2017-11-16T09:00:31.804Z,6.00
2017-11-16T09:03:08.088Z,6.10
2017-11-16T09:05:39.524Z,6.20
2017-11-16T09:08:17.232Z,6.20
2017-11-16T09:10:50.427Z,6.20
2017-11-16T09:13:22.086Z,6.30
2017-11-16T09:15:53.346Z,6.20
2017-11-16T09:18:25.007Z,6.20
2017-11-16T09:20:55.927Z,6.20
2017-11-16T09:23:28.827Z,6.10
2017-11-16T09:26:02.886Z,6.00
2017-11-16T09:28:35.307Z,6.10
2017-11-16T09:31:06.646Z,6.20
2017-11-16T09:33:37.686Z,6.20
2017-11-16T09:36:10.567Z,6.20
2017-11-16T09:38:41.811Z,6.20
2017-11-16T09:41:12.546Z,6.10
2017-11-16T09:43:44.406Z,6.10
2017-11-16T09:46:16.566Z,6.00
2017-11-16T09:48:50.687Z,6.10
2017-11-16T09:51:22.547Z,6.20
2017-11-16T09:53:56.147Z,6.30
2017-11-16T09:56:30.344Z,6.30
2017-11-16T09:59:03.327Z,6.30
2017-11-16T10:01:35.826Z,6.30
2017-11-16T10:04:09.206Z,6.30
2017-11-16T10:06:41.070Z,6.40
2017-11-16T10:09:13.026Z,6.40
2017-11-16T10:11:46.526Z,6.40
2017-11-16T10:14:17.768Z,6.40
2017-11-16T10:16:50.847Z,6.40
2017-11-16T10:19:22.107Z,6.40
2017-11-16T10:21:55.180Z,6.50
2017-11-16T10:24:28.387Z,6.40
2017-11-16T10:26:59.747Z,6.30
2017-11-16T10:29:31.687Z,6.40
2017-11-16T10:32:03.981Z,6.50
2017-11-16T10:34:35.727Z,6.40
2017-11-16T10:37:06.447Z,6.60
2017-11-16T10:39:38.309Z,6.70
2017-11-16T10:42:12.529Z,6.70
2017-11-16T10:44:46.329Z,6.80
2017-11-16T10:47:17.850Z,6.80
2017-11-16T10:49:49.537Z,6.70
2017-11-16T10:52:20.998Z,6.60
2017-11-16T10:54:52.224Z,6.60
2017-11-16T10:57:23.380Z,6.70
2017-11-16T10:59:55.340Z,6.80
2017-11-16T11:02:25.876Z,6.90
2017-11-16T11:04:56.860Z,6.90
2017-11-16T11:07:28.980Z,6.80
2017-11-16T11:10:00.421Z,6.90
2017-11-16T11:12:31.158Z,6.80
2017-11-16T11:15:03.418Z,6.80
2017-11-16T11:17:34.678Z,6.70
2017-11-16T11:20:08.281Z,6.70
2017-11-16T11:22:41.346Z,6.70
2017-11-16T11:25:18.948Z,6.70
2017-11-16T11:27:58.686Z,6.70
2017-11-16T11:30:30.445Z,6.60
2017-11-16T11:33:01.596Z,6.50
2017-11-16T11:35:32.131Z,6.50
2017-11-16T11:38:05.730Z,6.50
2017-11-16T11:40:36.961Z,6.70
2017-11-16T11:43:10.670Z,6.80
2017-11-16T11:45:42.011Z,6.80
2017-11-16T11:48:13.559Z,6.80
2017-11-16T11:50:45.221Z,6.80
2017-11-16T11:53:17.690Z,6.70
2017-11-16T11:55:48.432Z,6.70
2017-11-16T11:58:20.707Z,6.70
2017-11-16T12:00:53.681Z,6.80
2017-11-16T12:03:25.048Z,6.90
2017-11-16T12:05:56.883Z,6.90
2017-11-16T12:08:29.372Z,7.00
2017-11-16T12:11:01.337Z,6.90
2017-11-16T12:13:33.595Z,6.90
2017-11-16T12:16:04.910Z,6.90
2017-11-16T12:18:37.860Z,6.80
2017-11-16T12:21:08.579Z,6.80
2017-11-16T12:23:41.968Z,6.90
2017-11-16T12:26:13.008Z,6.90
2017-11-16T12:28:45.681Z,7.00
2017-11-16T12:31:18.061Z,7.00
2017-11-16T12:33:50.120Z,7.00
2017-11-16T12:36:25.253Z,6.90
2017-11-16T12:38:56.588Z,7.00
2017-11-16T12:41:28.451Z,6.90
2017-11-16T12:44:04.604Z,6.90
2017-11-16T12:46:35.635Z,6.90
2017-11-16T12:49:07.619Z,7.00
2017-11-16T12:51:38.459Z,7.00
2017-11-16T12:54:09.400Z,7.00
2017-11-16T12:56:40.318Z,7.00
2017-11-16T12:59:15.359Z,7.00
2017-11-16T13:01:51.899Z,6.90
2017-11-16T13:04:23.084Z,6.90
2017-11-16T13:06:55.959Z,6.90
2017-11-16T13:09:27.720Z,6.80
2017-11-16T13:11:59.170Z,6.80
2017-11-16T13:14:30.878Z,6.90
2017-11-16T13:17:02.778Z,6.90
2017-11-16T13:19:33.520Z,6.80
2017-11-16T13:22:05.587Z,6.80
2017-11-16T13:24:39.587Z,6.80
2017-11-16T13:27:10.730Z,6.90
2017-11-16T13:29:41.268Z,6.90
2017-11-16T13:32:11.780Z,6.80
2017-11-16T13:34:43.752Z,6.80
2017-11-16T13:37:14.692Z,6.90
2017-11-16T13:39:47.979Z,6.80
2017-11-16T13:42:22.094Z,6.90
2017-11-16T13:44:53.352Z,6.80
2017-11-16T13:47:25.613Z,7.00
2017-11-16T13:50:02.381Z,7.10
2017-11-16T13:52:35.981Z,7.10
2017-11-16T13:55:07.893Z,7.20
2017-11-16T13:57:39.396Z,7.20
2017-11-16T14:00:11.253Z,7.10
2017-11-16T14:02:43.227Z,7.10
2017-11-16T14:05:14.268Z,7.00
2017-11-16T14:07:46.104Z,7.00
2017-11-16T14:10:18.693Z,7.00
2017-11-16T14:12:50.455Z,7.00
2017-11-16T14:15:22.112Z,7.00
2017-11-16T14:17:59.590Z,7.00
2017-11-16T14:20:31.040Z,7.10
2017-11-16T14:23:01.911Z,7.10
2017-11-16T14:25:34.069Z,7.20
2017-11-16T14:28:05.590Z,7.30
2017-11-16T14:30:36.750Z,8.00
2017-11-16T14:33:08.208Z,8.80
2017-11-16T14:35:39.848Z,9.70
2017-11-16T14:38:13.058Z,10.00
2017-11-16T14:40:43.969Z,10.40
2017-11-16T14:43:15.729Z,10.60
2017-11-16T14:45:49.549Z,10.50
2017-11-16T14:48:20.588Z,10.40
2017-11-16T14:50:52.648Z,10.70
2017-11-16T14:53:24.808Z,10.80
2017-11-16T14:55:57.194Z,10.20
2017-11-16T14:58:29.349Z,9.50
2017-11-16T15:01:00.589Z,9.00
2017-11-16T15:03:32.550Z,8.60
2017-11-16T15:06:05.029Z,8.30
2017-11-16T15:08:36.493Z,8.00
2017-11-16T15:11:07.829Z,7.90
2017-11-16T15:13:41.630Z,7.70
2017-11-16T15:16:12.570Z,7.60
2017-11-16T15:18:45.449Z,7.60
2017-11-16T15:21:18.229Z,7.50
2017-11-16T15:23:49.381Z,7.50
2017-11-16T15:26:21.244Z,7.50
2017-11-16T15:28:53.854Z,7.50
2017-11-16T15:31:27.100Z,7.50
2017-11-16T15:33:58.940Z,7.40
2017-11-16T15:36:35.904Z,7.40
2017-11-16T15:39:08.822Z,7.30
2017-11-16T15:41:40.383Z,7.20
2017-11-16T15:44:12.451Z,7.20
2017-11-16T15:46:42.771Z,7.10
2017-11-16T15:49:15.936Z,7.20
2017-11-16T15:51:47.516Z,7.20
2017-11-16T15:54:19.781Z,7.10
2017-11-16T15:56:50.950Z,7.00
2017-11-16T15:59:22.991Z,6.90
2017-11-16T16:01:53.612Z,6.90
2017-11-16T16:04:25.171Z,6.90
2017-11-16T16:06:57.135Z,6.90
2017-11-16T16:09:29.195Z,7.00
2017-11-16T16:12:00.336Z,7.10
2017-11-16T16:14:34.355Z,7.10
2017-11-16T16:17:05.076Z,7.00
2017-11-16T16:19:36.835Z,6.90
2017-11-16T16:22:07.896Z,6.80
2017-11-16T16:24:40.677Z,6.80
2017-11-16T16:27:14.879Z,6.80
2017-11-16T16:29:46.537Z,6.70
2017-11-16T16:32:18.298Z,6.80
2017-11-16T16:34:49.539Z,6.70
2017-11-16T16:37:21.499Z,6.70
2017-11-16T16:39:53.057Z,6.70
2017-11-16T16:42:23.278Z,6.70
2017-11-16T16:44:55.338Z,6.80
2017-11-16T16:47:26.978Z,6.80
2017-11-16T16:49:58.138Z,6.90
2017-11-16T16:52:30.100Z,6.90
2017-11-16T16:55:01.315Z,6.80
2017-11-16T16:57:33.495Z,6.80
2017-11-16T17:00:04.434Z,6.80
2017-11-16T17:02:36.395Z,6.70
2017-11-16T17:05:07.134Z,6.70
2017-11-16T17:07:38.994Z,6.60
2017-11-16T17:10:13.213Z,6.60
2017-11-16T17:12:52.329Z,6.60
2017-11-16T17:15:25.016Z,6.60
2017-11-16T17:17:56.475Z,6.70
2017-11-16T17:20:30.376Z,6.70
2017-11-16T17:23:02.234Z,6.80
2017-11-16T17:25:36.661Z,6.90
2017-11-16T17:28:07.294Z,6.90
2017-11-16T17:30:40.574Z,6.90
2017-11-16T17:33:14.382Z,6.80
2017-11-16T17:35:45.894Z,6.80
2017-11-16T17:38:17.611Z,6.90
2017-11-16T17:40:49.654Z,6.90
2017-11-16T17:43:22.142Z,6.80
2017-11-16T17:45:53.596Z,6.30
2017-11-16T17:48:25.435Z,6.70
2017-11-16T17:50:56.353Z,6.80
2017-11-16T17:53:27.015Z,6.80
2017-11-16T17:56:00.194Z,6.90
2017-11-16T17:58:32.934Z,6.90
2017-11-16T18:01:04.015Z,6.90
2017-11-16T18:03:34.893Z,6.90
2017-11-16T18:06:06.894Z,6.80
2017-11-16T18:08:41.143Z,6.90
2017-11-16T18:11:12.874Z,6.80
2017-11-16T18:13:43.814Z,6.80
2017-11-16T18:16:14.453Z,6.80
2017-11-16T18:18:45.996Z,6.90
2017-11-16T18:21:17.454Z,7.00
2017-11-16T18:23:49.330Z,7.00
2017-11-16T18:26:21.575Z,6.90
2017-11-16T18:28:52.899Z,7.00
2017-11-16T18:31:24.479Z,7.00
2017-11-16T18:33:56.020Z,6.90
2017-11-16T18:36:27.393Z,7.00
2017-11-16T18:38:58.452Z,7.00
2017-11-16T18:41:32.832Z,6.90
2017-11-16T18:44:05.113Z,6.90
2017-11-16T18:46:36.253Z,7.00
2017-11-16T18:49:06.954Z,6.90
2017-11-16T18:51:39.553Z,6.90
2017-11-16T18:54:13.574Z,7.00
2017-11-16T18:56:48.413Z,6.90
2017-11-16T18:59:19.893Z,6.90
2017-11-16T19:01:54.892Z,6.90
2017-11-16T19:04:27.572Z,6.90
2017-11-16T19:07:01.372Z,6.80
2017-11-16T19:09:41.313Z,6.70
2017-11-16T19:12:13.274Z,6.70
2017-11-16T19:14:44.213Z,6.50
2017-11-16T19:17:15.933Z,6.50
2017-11-16T19:19:47.633Z,6.60
2017-11-16T19:22:20.312Z,6.60
2017-11-16T19:24:53.177Z,6.60
2017-11-16T19:27:27.619Z,6.60
2017-11-16T19:29:59.905Z,6.60
2017-11-16T19:32:34.214Z,6.60
2017-11-16T19:35:05.354Z,6.60
2017-11-16T19:37:36.175Z,6.60
2017-11-16T19:40:08.335Z,6.60
2017-11-16T19:42:41.930Z,6.60
2017-11-16T19:45:18.294Z,6.60
2017-11-16T19:47:50.894Z,6.60
2017-11-16T19:50:22.935Z,6.60
2017-11-16T19:52:53.894Z,6.60
2017-11-16T19:55:24.634Z,6.60
2017-11-16T19:57:56.274Z,6.70
2017-11-16T20:00:27.314Z,6.70
2017-11-16T20:02:58.274Z,6.70
2017-11-16T20:05:31.536Z,6.60
2017-11-16T20:08:02.375Z,6.60
2017-11-16T20:10:33.223Z,6.60
2017-11-16T20:13:04.355Z,6.60
2017-11-16T20:15:35.714Z,6.60
2017-11-16T20:18:06.534Z,6.60
2017-11-16T20:20:37.494Z,6.60
2017-11-16T20:23:07.953Z,6.60
2017-11-16T20:25:38.854Z,6.60
2017-11-16T20:28:11.914Z,6.60
2017-11-16T20:30:44.619Z,6.60
2017-11-16T20:33:16.374Z,6.60
2017-11-16T20:35:47.294Z,6.60
2017-11-16T20:41:52.915Z,6.60
2017-11-16T20:44:38.154Z,6.50
2017-11-16T20:47:15.754Z,6.50
2017-11-16T20:49:47.596Z,6.50
2017-11-16T20:52:20.697Z,6.50
2017-11-16T20:54:51.734Z,6.50
2017-11-16T20:57:22.055Z,6.50
2017-11-16T20:59:53.514Z,6.50
2017-11-16T21:02:25.474Z,6.50
2017-11-16T21:05:00.414Z,6.50
2017-11-16T21:07:33.495Z,6.50
2017-11-16T21:10:04.934Z,6.50
2017-11-16T21:12:37.914Z,6.50
2017-11-16T21:15:09.477Z,6.40
2017-11-16T21:17:41.854Z,6.40
2017-11-16T21:20:13.614Z,6.40
2017-11-16T21:22:45.254Z,6.40
2017-11-16T21:25:19.174Z,6.50
2017-11-16T21:27:50.814Z,6.50
2017-11-16T21:30:22.894Z,6.40
2017-11-16T21:32:56.935Z,6.40
2017-11-16T21:35:28.557Z,6.50
2017-11-16T21:37:59.595Z,6.40
2017-11-16T21:40:32.934Z,6.40
2017-11-16T21:43:05.233Z,6.40
2017-11-16T21:45:37.834Z,6.30
2017-11-16T21:48:09.934Z,6.30
2017-11-16T21:50:41.854Z,6.30
2017-11-16T21:53:12.694Z,6.30
2017-11-16T21:55:44.954Z,6.20
2017-11-16T21:58:16.975Z,6.20
2017-11-16T22:00:50.955Z,6.20
2017-11-16T22:03:21.935Z,6.20
2017-11-16T22:05:55.155Z,6.30
2017-11-16T22:08:27.134Z,6.30
2017-11-16T22:10:58.175Z,6.20
2017-11-16T22:13:32.274Z,6.20
2017-11-16T22:16:03.935Z,6.30
2017-11-16T22:18:34.934Z,6.30
2017-11-16T22:21:06.628Z,6.30
2017-11-16T22:23:40.147Z,6.30
2017-11-16T22:26:12.794Z,6.30
2017-11-16T22:28:43.635Z,6.30
2017-11-16T22:31:18.254Z,6.30
2017-11-16T22:33:51.343Z,6.30
2017-11-16T22:36:22.694Z,6.30
2017-11-16T22:38:54.954Z,6.30
2017-11-16T22:41:25.935Z,6.20
2017-11-16T22:43:57.935Z,6.20
2017-11-16T22:46:28.694Z,6.30
2017-11-16T22:48:59.435Z,6.30
2017-11-16T22:51:31.595Z,6.40
2017-11-16T22:54:02.335Z,6.30
2017-11-16T22:56:36.463Z,6.30
2017-11-16T22:59:08.914Z,6.30
2017-11-16T23:01:39.234Z,6.40
2017-11-16T23:04:10.595Z,6.30
2017-11-16T23:06:42.016Z,6.30
2017-11-16T23:09:15.014Z,6.30
2017-11-16T23:11:47.594Z,6.30
2017-11-16T23:14:18.633Z,6.30
2017-11-16T23:16:51.734Z,6.50
2017-11-16T23:19:24.314Z,6.50
2017-11-16T23:21:58.415Z,6.50
2017-11-16T23:24:30.395Z,6.50
2017-11-16T23:27:01.995Z,6.50
2017-11-16T23:29:32.674Z,6.50
2017-11-16T23:32:07.095Z,6.40
2017-11-16T23:34:38.854Z,6.40
2017-11-16T23:37:10.955Z,6.40
2017-11-16T23:39:42.055Z,6.30
2017-11-16T23:42:13.814Z,6.30
2017-11-16T23:44:50.634Z,6.30
2017-11-16T23:47:23.054Z,6.20
2017-11-16T23:49:57.076Z,6.20
2017-11-16T23:52:29.854Z,6.20
2017-11-16T23:55:05.956Z,6.20
2017-11-16T23:57:37.962Z,6.20
